sensor_id;sensor_type;location;lat;lon;timestamp;pressure;altitude;pressure_sealevel;temperature;humidity
10946;BME280;5525;42.648;23.368;2023-09-19T00:00:15;95055.91;;;16.30;100.00
10946;BME280;5525;42.648;23.368;2023-09-19T00:02:46;95055.03;;;16.26;100.00
10946;BME280;5525;42.648;23.368;2023-09-19T00:05:13;95055.91;;;16.30;100.00
10946;BME280;5525;42.648;23.368;2023-09-19T00:07:40;95068.84;;;16.33;100.00
10946;BME280;5525;42.648;23.368;2023-09-19T00:10:07;95060.75;;;16.21;100.00
10946;BME280;5525;42.648;23.368;2023-09-19T00:12:35;95055.63;;;16.20;100.00
10946;BME280;5525;42.648;23.368;2023-09-19T00:15:02;95059.34;;;16.27;100.00
10946;BME280;5525;42.648;23.368;2023-09-19T00:17:30;95054.84;;;16.19;100.00
10946;BME280;5525;42.648;23.368;2023-09-19T00:19:58;95058.47;;;16.23;100.00
10946;BME280;5525;42.648;23.368;2023-09-19T00:22:32;95058.34;;;16.04;100.00
10946;BME280;5525;42.648;23.368;2023-09-19T00:24:59;95052.78;;;16.01;100.00
10946;BME280;5525;42.648;23.368;2023-09-19T00:27:26;95057.53;;;16.04;100.00
10946;BME280;5525;42.648;23.368;2023-09-19T00:29:53;95056.31;;;16.01;100.00
10946;BME280;5525;42.648;23.368;2023-09-19T00:32:19;95056.91;;;15.95;100.00
10946;BME280;5525;42.648;23.368;2023-09-19T00:34:46;95054.59;;;15.81;100.00
10946;BME280;5525;42.648;23.368;2023-09-19T00:37:14;95054.47;;;15.78;100.00
10946;BME280;5525;42.648;23.368;2023-09-19T00:39:43;95054.28;;;15.71;100.00
10946;BME280;5525;42.648;23.368;2023-09-19T00:42:18;95048.03;;;15.70;100.00
10946;BME280;5525;42.648;23.368;2023-09-19T00:44:46;95048.31;;;15.65;100.00
10946;BME280;5525;42.648;23.368;2023-09-19T00:47:12;95043.19;;;15.64;100.00
10946;BME280;5525;42.648;23.368;2023-09-19T00:49:42;95040.81;;;15.62;100.00
10946;BME280;5525;42.648;23.368;2023-09-19T00:52:10;95033.25;;;15.56;100.00
10946;BME280;5525;42.648;23.368;2023-09-19T00:54:39;95039.69;;;15.63;100.00
10946;BME280;5525;42.648;23.368;2023-09-19T00:57:06;95036.31;;;15.54;100.00
10946;BME280;5525;42.648;23.368;2023-09-19T00:59:33;95049.63;;;15.44;100.00
10946;BME280;5525;42.648;23.368;2023-09-19T01:02:01;95048.72;;;15.40;100.00
10946;BME280;5525;42.648;23.368;2023-09-19T01:04:28;95045.75;;;15.33;100.00
10946;BME280;5525;42.648;23.368;2023-09-19T01:06:55;95045.31;;;15.31;100.00
10946;BME280;5525;42.648;23.368;2023-09-19T01:09:23;95047.34;;;15.34;100.00
10946;BME280;5525;42.648;23.368;2023-09-19T01:11:53;95049.88;;;15.39;100.00
10946;BME280;5525;42.648;23.368;2023-09-19T01:14:30;95044.84;;;15.28;100.00
10946;BME280;5525;42.648;23.368;2023-09-19T01:17:03;95045.53;;;15.25;100.00
10946;BME280;5525;42.648;23.368;2023-09-19T01:22:42;95047.69;;;15.32;100.00
10946;BME280;5525;42.648;23.368;2023-09-19T01:25:39;95041.94;;;15.21;100.00
10946;BME280;5525;42.648;23.368;2023-09-19T01:28:21;95041.47;;;15.19;100.00
10946;BME280;5525;42.648;23.368;2023-09-19T01:30:58;95046.81;;;15.28;100.00
10946;BME280;5525;42.648;23.368;2023-09-19T01:33:28;95046.22;;;15.22;100.00
10946;BME280;5525;42.648;23.368;2023-09-19T01:35:59;95050.56;;;15.23;100.00
10946;BME280;5525;42.648;23.368;2023-09-19T01:38:26;95045.69;;;15.17;100.00
10946;BME280;5525;42.648;23.368;2023-09-19T01:41:02;95037.53;;;15.17;100.00
10946;BME280;5525;42.648;23.368;2023-09-19T01:43:34;95035.03;;;15.12;100.00
10946;BME280;5525;42.648;23.368;2023-09-19T01:46:09;95031.84;;;15.10;100.00
10946;BME280;5525;42.648;23.368;2023-09-19T01:48:42;95041.03;;;15.05;100.00
10946;BME280;5525;42.648;23.368;2023-09-19T01:51:15;95032.78;;;15.14;100.00
10946;BME280;5525;42.648;23.368;2023-09-19T01:53:51;95040.69;;;15.19;100.00
10946;BME280;5525;42.648;23.368;2023-09-19T01:56:29;95034.22;;;15.11;100.00
10946;BME280;5525;42.648;23.368;2023-09-19T01:59:02;95037.91;;;15.03;100.00
10946;BME280;5525;42.648;23.368;2023-09-19T02:01:32;95040.03;;;14.98;100.00
10946;BME280;5525;42.648;23.368;2023-09-19T02:04:00;95043.44;;;14.95;100.00
10946;BME280;5525;42.648;23.368;2023-09-19T02:06:28;95045.56;;;15.13;100.00
10946;BME280;5525;42.648;23.368;2023-09-19T02:08:55;95057.78;;;15.19;100.00
10946;BME280;5525;42.648;23.368;2023-09-19T02:11:22;95050.56;;;15.11;100.00
10946;BME280;5525;42.648;23.368;2023-09-19T02:13:50;95047.16;;;15.02;100.00
10946;BME280;5525;42.648;23.368;2023-09-19T02:16:19;95034.59;;;14.98;100.00
10946;BME280;5525;42.648;23.368;2023-09-19T02:18:48;95049.47;;;15.00;100.00
10946;BME280;5525;42.648;23.368;2023-09-19T02:21:15;95049.31;;;15.09;100.00
10946;BME280;5525;42.648;23.368;2023-09-19T02:23:42;95050.00;;;15.06;100.00
10946;BME280;5525;42.648;23.368;2023-09-19T02:26:09;95050.81;;;15.06;100.00
10946;BME280;5525;42.648;23.368;2023-09-19T02:28:37;95050.22;;;15.01;100.00
10946;BME280;5525;42.648;23.368;2023-09-19T02:31:03;95040.72;;;14.95;100.00
10946;BME280;5525;42.648;23.368;2023-09-19T02:33:31;95045.63;;;14.89;100.00
10946;BME280;5525;42.648;23.368;2023-09-19T02:36:00;95037.44;;;14.89;100.00
10946;BME280;5525;42.648;23.368;2023-09-19T02:38:29;95029.19;;;14.86;100.00
10946;BME280;5525;42.648;23.368;2023-09-19T02:40:56;95017.41;;;14.82;100.00
10946;BME280;5525;42.648;23.368;2023-09-19T02:43:23;95020.91;;;14.82;100.00
10946;BME280;5525;42.648;23.368;2023-09-19T02:45:50;95019.34;;;14.81;100.00
10946;BME280;5525;42.648;23.368;2023-09-19T02:48:19;95017.75;;;14.80;100.00
10946;BME280;5525;42.648;23.368;2023-09-19T02:50:45;95007.78;;;14.84;100.00
10946;BME280;5525;42.648;23.368;2023-09-19T02:53:14;95008.00;;;14.79;100.00
10946;BME280;5525;42.648;23.368;2023-09-19T02:55:41;95009.69;;;14.84;100.00
10946;BME280;5525;42.648;23.368;2023-09-19T02:58:08;95002.44;;;14.64;100.00
10946;BME280;5525;42.648;23.368;2023-09-19T03:00:37;95004.59;;;14.70;100.00
10946;BME280;5525;42.648;23.368;2023-09-19T03:03:04;95003.28;;;14.52;100.00
10946;BME280;5525;42.648;23.368;2023-09-19T03:05:33;95004.03;;;14.41;100.00
10946;BME280;5525;42.648;23.368;2023-09-19T03:08:01;95001.91;;;14.34;100.00
10946;BME280;5525;42.648;23.368;2023-09-19T03:10:29;95002.53;;;14.19;100.00
10946;BME280;5525;42.648;23.368;2023-09-19T03:12:56;94998.09;;;14.15;100.00
10946;BME280;5525;42.648;23.368;2023-09-19T03:15:23;95000.25;;;14.09;100.00
10946;BME280;5525;42.648;23.368;2023-09-19T03:17:50;95000.06;;;14.14;100.00
10946;BME280;5525;42.648;23.368;2023-09-19T03:20:18;95003.00;;;14.21;100.00
10946;BME280;5525;42.648;23.368;2023-09-19T03:22:46;95008.88;;;14.23;100.00
10946;BME280;5525;42.648;23.368;2023-09-19T03:25:13;95009.69;;;14.24;100.00
10946;BME280;5525;42.648;23.368;2023-09-19T03:27:42;94995.13;;;14.28;100.00
10946;BME280;5525;42.648;23.368;2023-09-19T03:30:09;94996.81;;;14.33;100.00
10946;BME280;5525;42.648;23.368;2023-09-19T03:32:43;94999.06;;;14.43;100.00
10946;BME280;5525;42.648;23.368;2023-09-19T03:35:10;95005.66;;;14.54;100.00
10946;BME280;5525;42.648;23.368;2023-09-19T03:37:39;95003.72;;;14.54;100.00
10946;BME280;5525;42.648;23.368;2023-09-19T03:40:07;94996.13;;;14.48;100.00
10946;BME280;5525;42.648;23.368;2023-09-19T03:42:38;94999.88;;;14.43;100.00
10946;BME280;5525;42.648;23.368;2023-09-19T03:45:07;95000.44;;;14.25;100.00
10946;BME280;5525;42.648;23.368;2023-09-19T03:47:37;95008.19;;;14.14;100.00
10946;BME280;5525;42.648;23.368;2023-09-19T03:50:05;95016.22;;;14.11;100.00
10946;BME280;5525;42.648;23.368;2023-09-19T03:52:32;95020.34;;;13.96;100.00
10946;BME280;5525;42.648;23.368;2023-09-19T03:54:59;95019.28;;;13.77;100.00
10946;BME280;5525;42.648;23.368;2023-09-19T03:57:26;95019.50;;;13.72;100.00
10946;BME280;5525;42.648;23.368;2023-09-19T03:59:53;95025.41;;;13.74;100.00
10946;BME280;5525;42.648;23.368;2023-09-19T04:02:22;95024.25;;;13.75;100.00
10946;BME280;5525;42.648;23.368;2023-09-19T04:04:50;95026.06;;;13.71;100.00
10946;BME280;5525;42.648;23.368;2023-09-19T04:07:17;95021.63;;;13.66;100.00
10946;BME280;5525;42.648;23.368;2023-09-19T04:09:44;95025.81;;;13.64;100.00
10946;BME280;5525;42.648;23.368;2023-09-19T04:12:12;95031.69;;;13.66;100.00
10946;BME280;5525;42.648;23.368;2023-09-19T04:14:42;95039.31;;;13.72;100.00
10946;BME280;5525;42.648;23.368;2023-09-19T04:17:08;95035.25;;;13.78;100.00
10946;BME280;5525;42.648;23.368;2023-09-19T04:19:37;95034.38;;;13.86;100.00
10946;BME280;5525;42.648;23.368;2023-09-19T04:22:03;95034.50;;;13.90;100.00
10946;BME280;5525;42.648;23.368;2023-09-19T04:24:30;95038.22;;;13.85;100.00
10946;BME280;5525;42.648;23.368;2023-09-19T04:26:57;95042.38;;;13.83;100.00
10946;BME280;5525;42.648;23.368;2023-09-19T04:29:24;95038.13;;;13.94;100.00
10946;BME280;5525;42.648;23.368;2023-09-19T04:31:55;95038.06;;;14.02;100.00
10946;BME280;5525;42.648;23.368;2023-09-19T04:34:21;95038.28;;;14.09;100.00
10946;BME280;5525;42.648;23.368;2023-09-19T04:36:51;95033.88;;;14.17;100.00
10946;BME280;5525;42.648;23.368;2023-09-19T04:39:18;95023.47;;;14.19;100.00
10946;BME280;5525;42.648;23.368;2023-09-19T04:41:44;95022.34;;;14.20;100.00
10946;BME280;5525;42.648;23.368;2023-09-19T04:44:13;95030.19;;;14.33;100.00
10946;BME280;5525;42.648;23.368;2023-09-19T04:46:39;95032.91;;;14.45;100.00
10946;BME280;5525;42.648;23.368;2023-09-19T04:49:06;95028.97;;;14.55;100.00
10946;BME280;5525;42.648;23.368;2023-09-19T04:51:33;95025.34;;;14.63;100.00
10946;BME280;5525;42.648;23.368;2023-09-19T04:54:03;95026.25;;;14.79;100.00
10946;BME280;5525;42.648;23.368;2023-09-19T04:56:30;95025.31;;;14.75;100.00
10946;BME280;5525;42.648;23.368;2023-09-19T04:58:58;95018.84;;;14.91;100.00
10946;BME280;5525;42.648;23.368;2023-09-19T05:01:25;95023.25;;;15.08;100.00
10946;BME280;5525;42.648;23.368;2023-09-19T05:03:52;95021.75;;;15.22;100.00
10946;BME280;5525;42.648;23.368;2023-09-19T05:06:19;95013.78;;;15.42;100.00
10946;BME280;5525;42.648;23.368;2023-09-19T05:08:47;95008.53;;;15.49;100.00
10946;BME280;5525;42.648;23.368;2023-09-19T05:11:17;95009.06;;;15.66;100.00
10946;BME280;5525;42.648;23.368;2023-09-19T05:13:43;95006.97;;;15.75;100.00
10946;BME280;5525;42.648;23.368;2023-09-19T05:16:10;95014.66;;;16.01;100.00
10946;BME280;5525;42.648;23.368;2023-09-19T05:18:37;95010.47;;;16.19;100.00
10946;BME280;5525;42.648;23.368;2023-09-19T05:21:04;95010.84;;;16.48;100.00
10946;BME280;5525;42.648;23.368;2023-09-19T05:23:31;95004.56;;;16.79;100.00
10946;BME280;5525;42.648;23.368;2023-09-19T05:25:58;95005.13;;;17.04;100.00
10946;BME280;5525;42.648;23.368;2023-09-19T05:28:26;94998.78;;;17.15;100.00
10946;BME280;5525;42.648;23.368;2023-09-19T05:30:53;94988.75;;;17.38;100.00
10946;BME280;5525;42.648;23.368;2023-09-19T05:33:20;94995.75;;;17.55;100.00
10946;BME280;5525;42.648;23.368;2023-09-19T05:35:48;95006.31;;;17.75;100.00
10946;BME280;5525;42.648;23.368;2023-09-19T05:38:15;94992.38;;;17.80;100.00
10946;BME280;5525;42.648;23.368;2023-09-19T05:40:44;94993.94;;;18.00;100.00
10946;BME280;5525;42.648;23.368;2023-09-19T05:43:11;94987.44;;;18.31;100.00
10946;BME280;5525;42.648;23.368;2023-09-19T05:45:40;94993.06;;;18.19;100.00
10946;BME280;5525;42.648;23.368;2023-09-19T05:48:09;94989.50;;;18.15;100.00
10946;BME280;5525;42.648;23.368;2023-09-19T05:50:37;94985.09;;;18.29;100.00
10946;BME280;5525;42.648;23.368;2023-09-19T05:53:03;94992.03;;;18.46;100.00
10946;BME280;5525;42.648;23.368;2023-09-19T05:55:31;94985.91;;;18.53;100.00
10946;BME280;5525;42.648;23.368;2023-09-19T05:57:57;94980.44;;;18.53;100.00
10946;BME280;5525;42.648;23.368;2023-09-19T06:00:24;94982.47;;;18.59;100.00
10946;BME280;5525;42.648;23.368;2023-09-19T06:02:55;94979.88;;;18.92;100.00
10946;BME280;5525;42.648;23.368;2023-09-19T06:05:24;94981.78;;;19.14;100.00
10946;BME280;5525;42.648;23.368;2023-09-19T06:07:52;94981.53;;;19.26;100.00
10946;BME280;5525;42.648;23.368;2023-09-19T06:10:19;94977.19;;;18.96;100.00
10946;BME280;5525;42.648;23.368;2023-09-19T06:12:48;94981.72;;;19.37;100.00
10946;BME280;5525;42.648;23.368;2023-09-19T06:15:16;94975.41;;;19.66;100.00
10946;BME280;5525;42.648;23.368;2023-09-19T06:17:46;94977.97;;;19.81;100.00
10946;BME280;5525;42.648;23.368;2023-09-19T06:20:15;94979.94;;;19.51;100.00
10946;BME280;5525;42.648;23.368;2023-09-19T06:22:43;94976.66;;;19.72;100.00
10946;BME280;5525;42.648;23.368;2023-09-19T06:25:10;94976.41;;;20.17;100.00
10946;BME280;5525;42.648;23.368;2023-09-19T06:27:38;94980.91;;;20.36;100.00
10946;BME280;5525;42.648;23.368;2023-09-19T06:30:07;94973.66;;;20.57;100.00
10946;BME280;5525;42.648;23.368;2023-09-19T06:32:34;94970.53;;;20.62;100.00
10946;BME280;5525;42.648;23.368;2023-09-19T06:35:01;94972.13;;;21.10;100.00
10946;BME280;5525;42.648;23.368;2023-09-19T06:37:29;94966.38;;;23.06;100.00
10946;BME280;5525;42.648;23.368;2023-09-19T06:39:57;94969.72;;;25.11;100.00
10946;BME280;5525;42.648;23.368;2023-09-19T06:42:23;94980.41;;;27.27;86.27
10946;BME280;5525;42.648;23.368;2023-09-19T06:44:50;94987.31;;;28.04;78.92
10946;BME280;5525;42.648;23.368;2023-09-19T06:47:17;94989.44;;;28.71;73.13
10946;BME280;5525;42.648;23.368;2023-09-19T06:49:43;94993.41;;;27.07;72.78
10946;BME280;5525;42.648;23.368;2023-09-19T06:52:10;94991.91;;;26.76;76.98
10946;BME280;5525;42.648;23.368;2023-09-19T06:54:38;94995.78;;;26.25;80.37
10946;BME280;5525;42.648;23.368;2023-09-19T06:57:07;94989.84;;;25.59;83.61
10946;BME280;5525;42.648;23.368;2023-09-19T06:59:35;94993.84;;;25.11;90.21
10946;BME280;5525;42.648;23.368;2023-09-19T07:02:02;94994.16;;;24.72;92.95
10946;BME280;5525;42.648;23.368;2023-09-19T07:04:31;94994.03;;;24.86;93.35
10946;BME280;5525;42.648;23.368;2023-09-19T07:06:58;95000.00;;;24.81;92.08
10946;BME280;5525;42.648;23.368;2023-09-19T07:09:25;94993.63;;;24.88;91.02
10946;BME280;5525;42.648;23.368;2023-09-19T07:11:54;95000.00;;;24.81;91.82
10946;BME280;5525;42.648;23.368;2023-09-19T07:14:21;94998.72;;;24.31;95.57
10946;BME280;5525;42.648;23.368;2023-09-19T07:16:48;94993.47;;;24.50;95.13
10946;BME280;5525;42.648;23.368;2023-09-19T07:19:16;94999.03;;;24.43;95.16
10946;BME280;5525;42.648;23.368;2023-09-19T07:21:42;94995.91;;;24.41;95.99
10946;BME280;5525;42.648;23.368;2023-09-19T07:24:09;94998.91;;;24.68;94.80
10946;BME280;5525;42.648;23.368;2023-09-19T07:26:36;95001.75;;;24.54;95.81
10946;BME280;5525;42.648;23.368;2023-09-19T07:29:04;94992.81;;;24.91;92.83
10946;BME280;5525;42.648;23.368;2023-09-19T07:31:33;95009.44;;;25.35;89.38
10946;BME280;5525;42.648;23.368;2023-09-19T07:34:00;95002.91;;;25.11;89.78
10946;BME280;5525;42.648;23.368;2023-09-19T07:36:29;95007.81;;;24.24;95.87
10946;BME280;5525;42.648;23.368;2023-09-19T07:38:55;94994.19;;;23.82;100.00
10946;BME280;5525;42.648;23.368;2023-09-19T07:41:23;94991.28;;;24.21;100.00
10946;BME280;5525;42.648;23.368;2023-09-19T07:43:51;94997.13;;;24.33;97.40
10946;BME280;5525;42.648;23.368;2023-09-19T07:46:19;94995.75;;;23.87;99.59
10946;BME280;5525;42.648;23.368;2023-09-19T07:48:46;94996.53;;;23.80;100.00
10946;BME280;5525;42.648;23.368;2023-09-19T07:51:14;94992.19;;;23.90;100.00
10946;BME280;5525;42.648;23.368;2023-09-19T07:53:41;94995.59;;;24.22;99.17
10946;BME280;5525;42.648;23.368;2023-09-19T07:56:10;95001.53;;;24.20;99.01
10946;BME280;5525;42.648;23.368;2023-09-19T07:58:39;95001.22;;;24.04;100.00
10946;BME280;5525;42.648;23.368;2023-09-19T08:01:10;94997.31;;;24.63;97.97
10946;BME280;5525;42.648;23.368;2023-09-19T08:03:40;95004.38;;;25.23;93.16
10946;BME280;5525;42.648;23.368;2023-09-19T08:06:08;94994.56;;;25.59;87.91
10946;BME280;5525;42.648;23.368;2023-09-19T08:08:35;95009.16;;;24.64;93.25
10946;BME280;5525;42.648;23.368;2023-09-19T08:11:03;95005.19;;;25.23;91.08
10946;BME280;5525;42.648;23.368;2023-09-19T08:13:36;95001.63;;;26.00;85.86
10946;BME280;5525;42.648;23.368;2023-09-19T08:16:03;94990.59;;;26.57;82.43
10946;BME280;5525;42.648;23.368;2023-09-19T08:18:30;94984.66;;;27.08;76.43
10946;BME280;5525;42.648;23.368;2023-09-19T08:20:58;94980.19;;;26.38;79.33
10946;BME280;5525;42.648;23.368;2023-09-19T08:23:26;94988.88;;;26.93;77.61
10946;BME280;5525;42.648;23.368;2023-09-19T08:25:56;94978.53;;;27.43;74.99
10946;BME280;5525;42.648;23.368;2023-09-19T08:28:23;94977.00;;;26.93;77.30
10946;BME280;5525;42.648;23.368;2023-09-19T08:30:50;94981.97;;;27.28;73.64
10946;BME280;5525;42.648;23.368;2023-09-19T08:33:18;94971.66;;;27.71;71.45
10946;BME280;5525;42.648;23.368;2023-09-19T08:35:46;94977.78;;;28.25;69.09
10946;BME280;5525;42.648;23.368;2023-09-19T08:38:14;94980.22;;;28.58;66.41
10946;BME280;5525;42.648;23.368;2023-09-19T08:40:41;94991.81;;;29.05;64.09
10946;BME280;5525;42.648;23.368;2023-09-19T08:43:09;94985.25;;;28.63;66.29
10946;BME280;5525;42.648;23.368;2023-09-19T08:45:35;94989.03;;;29.05;62.13
10946;BME280;5525;42.648;23.368;2023-09-19T08:48:16;94997.31;;;29.56;60.10
10946;BME280;5525;42.648;23.368;2023-09-19T08:50:49;94979.72;;;30.04;58.08
10946;BME280;5525;42.648;23.368;2023-09-19T08:53:21;94985.69;;;29.90;55.92
10946;BME280;5525;42.648;23.368;2023-09-19T08:55:52;94982.59;;;29.40;59.75
10946;BME280;5525;42.648;23.368;2023-09-19T08:58:26;94976.88;;;30.86;54.20
10946;BME280;5525;42.648;23.368;2023-09-19T09:00:57;94979.06;;;30.41;55.50
10946;BME280;5525;42.648;23.368;2023-09-19T09:03:48;94981.63;;;30.48;54.79
10946;BME280;5525;42.648;23.368;2023-09-19T09:06:16;94972.00;;;29.67;56.00
10946;BME280;5525;42.648;23.368;2023-09-19T09:08:46;94968.69;;;28.76;58.74
10946;BME280;5525;42.648;23.368;2023-09-19T09:11:13;94967.34;;;27.70;63.83
10946;BME280;5525;42.648;23.368;2023-09-19T09:13:42;94958.53;;;27.75;64.60
10946;BME280;5525;42.648;23.368;2023-09-19T09:16:10;94967.25;;;27.96;64.39
10946;BME280;5525;42.648;23.368;2023-09-19T09:18:38;94957.56;;;27.62;65.52
10946;BME280;5525;42.648;23.368;2023-09-19T09:21:05;94954.47;;;27.60;66.74
10946;BME280;5525;42.648;23.368;2023-09-19T09:23:32;94950.81;;;28.41;63.26
10946;BME280;5525;42.648;23.368;2023-09-19T09:26:00;94949.84;;;30.71;55.63
10946;BME280;5525;42.648;23.368;2023-09-19T09:28:31;94950.19;;;30.73;52.42
10946;BME280;5525;42.648;23.368;2023-09-19T09:30:59;94947.19;;;31.05;52.59
10946;BME280;5525;42.648;23.368;2023-09-19T09:33:28;94951.41;;;32.03;48.43
10946;BME280;5525;42.648;23.368;2023-09-19T09:35:56;94942.41;;;32.29;48.37
10946;BME280;5525;42.648;23.368;2023-09-19T09:38:25;94955.16;;;31.53;49.00
10946;BME280;5525;42.648;23.368;2023-09-19T09:40:54;94949.59;;;31.87;47.94
10946;BME280;5525;42.648;23.368;2023-09-19T09:43:28;94936.66;;;32.45;47.04
10946;BME280;5525;42.648;23.368;2023-09-19T09:46:12;94947.63;;;33.59;44.53
10946;BME280;5525;42.648;23.368;2023-09-19T09:48:59;94936.00;;;32.20;46.87
10946;BME280;5525;42.648;23.368;2023-09-19T09:51:44;94935.28;;;32.07;46.82
10946;BME280;5525;42.648;23.368;2023-09-19T09:54:14;94937.72;;;33.94;43.20
10946;BME280;5525;42.648;23.368;2023-09-19T09:56:55;94931.66;;;34.73;40.41
10946;BME280;5525;42.648;23.368;2023-09-19T09:59:52;94931.72;;;35.86;38.16
10946;BME280;5525;42.648;23.368;2023-09-19T10:02:24;94917.59;;;34.41;39.50
10946;BME280;5525;42.648;23.368;2023-09-19T10:04:55;94924.47;;;33.76;40.70
10946;BME280;5525;42.648;23.368;2023-09-19T10:07:34;94921.06;;;32.97;42.32
10946;BME280;5525;42.648;23.368;2023-09-19T10:10:04;94917.66;;;32.19;44.20
10946;BME280;5525;42.648;23.368;2023-09-19T10:12:43;94912.38;;;30.97;46.89
10946;BME280;5525;42.648;23.368;2023-09-19T10:15:12;94915.81;;;29.85;50.31
10946;BME280;5525;42.648;23.368;2023-09-19T10:17:42;94909.03;;;28.45;55.47
10946;BME280;5525;42.648;23.368;2023-09-19T10:20:12;94902.75;;;27.89;59.01
10946;BME280;5525;42.648;23.368;2023-09-19T10:22:59;94907.72;;;27.78;62.57
10946;BME280;5525;42.648;23.368;2023-09-19T10:25:27;94895.25;;;27.66;63.79
10946;BME280;5525;42.648;23.368;2023-09-19T10:27:57;94896.03;;;27.67;63.77
10946;BME280;5525;42.648;23.368;2023-09-19T10:30:26;94895.56;;;27.72;63.97
10946;BME280;5525;42.648;23.368;2023-09-19T10:32:57;94893.97;;;27.71;64.65
10946;BME280;5525;42.648;23.368;2023-09-19T10:35:26;94887.72;;;27.67;65.75
10946;BME280;5525;42.648;23.368;2023-09-19T10:37:54;94879.25;;;27.35;66.14
10946;BME280;5525;42.648;23.368;2023-09-19T10:40:22;94882.03;;;27.35;66.87
10946;BME280;5525;42.648;23.368;2023-09-19T10:43:00;94878.59;;;26.85;68.48
10946;BME280;5525;42.648;23.368;2023-09-19T10:45:32;94880.41;;;27.14;68.04
10946;BME280;5525;42.648;23.368;2023-09-19T10:47:59;94881.59;;;27.36;67.74
10946;BME280;5525;42.648;23.368;2023-09-19T10:50:31;94883.63;;;27.55;66.89
10946;BME280;5525;42.648;23.368;2023-09-19T10:53:00;94874.69;;;26.79;70.09
10946;BME280;5525;42.648;23.368;2023-09-19T10:55:31;94873.34;;;26.14;74.38
10946;BME280;5525;42.648;23.368;2023-09-19T10:58:01;94864.84;;;26.51;74.40
10946;BME280;5525;42.648;23.368;2023-09-19T11:00:50;94866.94;;;26.93;72.06
10946;BME280;5525;42.648;23.368;2023-09-19T11:03:19;94863.50;;;26.86;72.43
10946;BME280;5525;42.648;23.368;2023-09-19T11:06:05;94861.78;;;27.15;71.73
10946;BME280;5525;42.648;23.368;2023-09-19T11:08:57;94858.44;;;27.23;70.15
10946;BME280;5525;42.648;23.368;2023-09-19T11:11:40;94854.56;;;27.40;68.70
10946;BME280;5525;42.648;23.368;2023-09-19T11:14:28;94866.59;;;27.92;66.26
10946;BME280;5525;42.648;23.368;2023-09-19T11:20:22;94856.22;;;28.13;66.07
10946;BME280;5525;42.648;23.368;2023-09-19T11:23:23;94852.47;;;28.55;64.09
10946;BME280;5525;42.648;23.368;2023-09-19T11:25:51;94852.78;;;28.41;63.97
10946;BME280;5525;42.648;23.368;2023-09-19T11:28:29;94849.28;;;28.56;63.85
10946;BME280;5525;42.648;23.368;2023-09-19T11:30:56;94842.91;;;28.56;64.97
10946;BME280;5525;42.648;23.368;2023-09-19T11:33:25;94845.00;;;28.52;65.40
10946;BME280;5525;42.648;23.368;2023-09-19T11:36:02;94834.22;;;28.70;63.68
10946;BME280;5525;42.648;23.368;2023-09-19T11:38:57;94838.41;;;28.62;64.13
10946;BME280;5525;42.648;23.368;2023-09-19T11:41:39;94830.59;;;28.57;63.58
10946;BME280;5525;42.648;23.368;2023-09-19T11:44:32;94829.63;;;28.63;63.48
10946;BME280;5525;42.648;23.368;2023-09-19T11:47:05;94825.72;;;28.77;62.37
10946;BME280;5525;42.648;23.368;2023-09-19T11:49:32;94809.38;;;28.95;62.47
10946;BME280;5525;42.648;23.368;2023-09-19T11:52:02;94802.31;;;29.06;60.77
10946;BME280;5525;42.648;23.368;2023-09-19T11:54:31;94795.59;;;28.75;61.68
10946;BME280;5525;42.648;23.368;2023-09-19T11:56:59;94794.50;;;29.01;61.69
10946;BME280;5525;42.648;23.368;2023-09-19T11:59:27;94797.34;;;29.14;61.40
10946;BME280;5525;42.648;23.368;2023-09-19T12:01:55;94794.88;;;28.87;62.60
10946;BME280;5525;42.648;23.368;2023-09-19T12:04:37;94800.59;;;28.96;62.01
10946;BME280;5525;42.648;23.368;2023-09-19T12:07:07;94800.63;;;28.48;64.18
10946;BME280;5525;42.648;23.368;2023-09-19T12:09:39;94800.34;;;29.48;61.21
10946;BME280;5525;42.648;23.368;2023-09-19T12:12:07;94801.84;;;29.65;59.92
10946;BME280;5525;42.648;23.368;2023-09-19T12:14:34;94792.75;;;29.90;58.02
10946;BME280;5525;42.648;23.368;2023-09-19T12:17:01;94788.41;;;29.76;57.80
10946;BME280;5525;42.648;23.368;2023-09-19T12:19:29;94783.94;;;29.66;58.25
10946;BME280;5525;42.648;23.368;2023-09-19T12:21:59;94778.28;;;29.41;58.52
10946;BME280;5525;42.648;23.368;2023-09-19T12:24:31;94780.47;;;30.62;55.21
10946;BME280;5525;42.648;23.368;2023-09-19T12:27:02;94779.72;;;30.49;56.07
10946;BME280;5525;42.648;23.368;2023-09-19T12:29:31;94770.38;;;30.43;55.06
10946;BME280;5525;42.648;23.368;2023-09-19T12:31:59;94769.59;;;30.43;55.73
10946;BME280;5525;42.648;23.368;2023-09-19T12:34:29;94772.69;;;30.45;54.72
10946;BME280;5525;42.648;23.368;2023-09-19T12:37:10;94761.63;;;30.20;55.56
10946;BME280;5525;42.648;23.368;2023-09-19T12:39:49;94756.63;;;29.61;56.76
10946;BME280;5525;42.648;23.368;2023-09-19T12:42:20;94759.09;;;29.18;58.60
10946;BME280;5525;42.648;23.368;2023-09-19T12:44:50;94746.53;;;28.53;61.34
10946;BME280;5525;42.648;23.368;2023-09-19T12:47:21;94749.91;;;28.60;61.77
10946;BME280;5525;42.648;23.368;2023-09-19T12:50:05;94748.78;;;28.74;61.62
10946;BME280;5525;42.648;23.368;2023-09-19T12:52:35;94746.97;;;28.51;62.93
10946;BME280;5525;42.648;23.368;2023-09-19T12:55:04;94754.16;;;27.84;66.07
10946;BME280;5525;42.648;23.368;2023-09-19T12:57:32;94756.63;;;28.15;65.19
10946;BME280;5525;42.648;23.368;2023-09-19T13:00:00;94749.84;;;28.32;64.67
10946;BME280;5525;42.648;23.368;2023-09-19T13:02:27;94752.13;;;27.85;65.83
10946;BME280;5525;42.648;23.368;2023-09-19T13:04:54;94751.50;;;27.77;66.85
10946;BME280;5525;42.648;23.368;2023-09-19T13:07:45;94732.88;;;27.78;67.21
10946;BME280;5525;42.648;23.368;2023-09-19T13:10:13;94736.00;;;27.80;67.59
10946;BME280;5525;42.648;23.368;2023-09-19T13:12:43;94732.88;;;27.78;68.02
10946;BME280;5525;42.648;23.368;2023-09-19T13:15:14;94731.00;;;27.91;67.78